Time;durP1;ratioP1;P1;durP2;ratioP2;P2;SDS_P1;SDS_P2;PMS_P1;PMS_P2;Temp;Humidity;BMP_temperature;BMP_pressure;BME280_temperature;BME280_humidity;BME280_pressure;Samples;Min_cycle;Max_cycle;Signal;HPM_P1;HPM_P2
2023/03/25 00:02:26;;;;;;;2.40;1.27;;;8.00;99.90;;;;;;5048857;28;20041;-92
2023/03/25 00:04:53;;;;;;;2.70;1.40;;;7.90;99.90;;;;;;5049120;28;20041;-91
2023/03/25 00:07:20;;;;;;;3.87;1.60;;;7.90;99.90;;;;;;5048423;28;20107;-92
2023/03/25 00:09:46;;;;;;;3.60;1.60;;;7.90;99.90;;;;;;5047775;28;20035;-91
2023/03/25 00:12:13;;;;;;;2.73;1.40;;;7.80;99.90;;;;;;5048362;28;20124;-93
2023/03/25 00:14:39;;;;;;;3.73;1.30;;;7.80;99.90;;;;;;5048786;28;20725;-92
2023/03/25 00:17:05;;;;;;;3.03;1.23;;;7.80;99.90;;;;;;5047751;28;20100;-90
2023/03/25 00:19:34;;;;;;;5.27;1.83;;;7.80;99.90;;;;;;5048213;28;20028;-90
2023/03/25 00:22:00;;;;;;;4.90;1.50;;;7.80;99.90;;;;;;5048869;28;20037;-91
2023/03/25 00:24:26;;;;;;;3.30;1.40;;;7.90;99.90;;;;;;5047847;28;20083;-93
2023/03/25 00:26:53;;;;;;;3.70;1.70;;;7.90;99.90;;;;;;5048477;28;20029;-92
2023/03/25 00:29:19;;;;;;;1.90;1.10;;;7.90;99.90;;;;;;5047789;28;20047;-91
2023/03/25 00:31:45;;;;;;;2.80;1.20;;;7.90;99.90;;;;;;5047308;28;20086;-90
2023/03/25 00:34:13;;;;;;;2.37;1.50;;;7.90;99.90;;;;;;5048044;28;20049;-90
2023/03/25 00:36:40;;;;;;;4.30;1.60;;;7.90;99.90;;;;;;5031515;28;20033;-91
2023/03/25 00:39:07;;;;;;;4.23;1.83;;;7.90;99.90;;;;;;5047231;28;20039;-90
2023/03/25 00:41:34;;;;;;;5.30;1.47;;;7.90;99.90;;;;;;5048180;28;20033;-92
2023/03/25 00:44:01;;;;;;;9.60;1.97;;;7.90;99.90;;;;;;5047836;28;20017;-93
2023/03/25 00:46:29;;;;;;;2.07;1.20;;;7.90;99.90;;;;;;5047686;28;20095;-90
2023/03/25 00:48:57;;;;;;;2.80;1.30;;;8.00;99.90;;;;;;5044505;28;20025;-91
2023/03/25 00:51:24;;;;;;;2.97;1.40;;;8.10;99.90;;;;;;5031674;28;20040;-91
2023/03/25 00:53:55;;;;;;;3.03;1.23;;;8.10;99.90;;;;;;5047798;28;20124;-91
2023/03/25 00:56:23;;;;;;;2.60;1.20;;;8.20;99.90;;;;;;5048304;28;20450;-93
2023/03/25 00:58:49;;;;;;;4.37;1.97;;;8.30;99.90;;;;;;5047826;28;20060;-94
2023/03/25 01:01:22;;;;;;;5.60;1.60;;;8.60;99.90;;;;;;5049213;28;20036;-92
2023/03/25 01:03:48;;;;;;;6.97;1.40;;;8.70;99.90;;;;;;5049955;28;20159;-93
2023/03/25 01:06:15;;;;;;;3.23;1.17;;;8.80;99.90;;;;;;5036163;28;20037;-90
2023/03/25 01:08:42;;;;;;;4.30;1.50;;;8.90;99.90;;;;;;5029006;28;20044;-92
2023/03/25 01:11:23;;;;;;;4.90;1.50;;;8.90;99.90;;;;;;5028936;28;20056;-94
2023/03/25 01:13:50;;;;;;;4.40;1.23;;;9.00;99.90;;;;;;5029458;28;20044;-93
2023/03/25 01:16:15;;;;;;;4.37;1.20;;;9.10;99.90;;;;;;5029726;28;20029;-90
2023/03/25 01:18:41;;;;;;;4.03;1.30;;;9.20;99.90;;;;;;5028235;28;20029;-92
2023/03/25 01:21:07;;;;;;;5.03;1.20;;;9.20;99.90;;;;;;5027823;28;20029;-92
2023/03/25 01:23:34;;;;;;;2.70;1.00;;;9.30;99.90;;;;;;5011127;28;20031;-90
2023/03/25 01:25:59;;;;;;;3.17;1.20;;;9.30;99.90;;;;;;5028082;28;20064;-89
2023/03/25 01:28:26;;;;;;;2.30;1.00;;;9.30;99.90;;;;;;5011305;28;20045;-91
2023/03/25 01:31:03;;;;;;;2.63;1.10;;;9.30;99.90;;;;;;5027390;28;20091;-91
2023/03/25 01:33:28;;;;;;;4.13;1.10;;;9.30;99.90;;;;;;5028863;28;20088;-90
2023/03/25 01:35:54;;;;;;;5.23;1.37;;;9.20;99.90;;;;;;5025805;28;20029;-93
2023/03/25 01:38:20;;;;;;;2.50;1.20;;;9.20;99.90;;;;;;5026191;28;20097;-90
2023/03/25 01:40:46;;;;;;;3.80;1.33;;;9.20;99.90;;;;;;5027457;28;21461;-92
2023/03/25 01:43:14;;;;;;;5.57;1.40;;;9.20;99.90;;;;;;5025968;28;20025;-90
2023/03/25 01:45:40;;;;;;;2.80;1.17;;;9.10;99.90;;;;;;5026585;28;21034;-91
2023/03/25 01:48:14;;;;;;;3.20;1.10;;;9.00;99.90;;;;;;5027372;28;20112;-91
2023/03/25 01:50:43;;;;;;;5.57;1.25;;;9.00;99.90;;;;;;5027191;28;20036;-88
2023/03/25 01:53:10;;;;;;;3.07;1.23;;;9.00;99.90;;;;;;5024380;28;20041;-92
2023/03/25 01:55:37;;;;;;;4.77;1.83;;;9.00;99.90;;;;;;5026907;28;20357;-91
2023/03/25 01:58:09;;;;;;;4.80;1.77;;;9.00;99.90;;;;;;5024994;28;20029;-89
2023/03/25 02:00:36;;;;;;;3.77;1.23;;;9.00;99.90;;;;;;5028400;28;20028;-90
2023/03/25 02:03:02;;;;;;;4.60;1.23;;;9.00;99.90;;;;;;5013068;28;20022;-92
2023/03/25 02:05:44;;;;;;;4.83;1.30;;;9.00;99.90;;;;;;5040311;28;20049;-91
2023/03/25 02:08:10;;;;;;;8.10;1.57;;;9.00;99.90;;;;;;5051115;28;20079;-89
2023/03/25 02:10:37;;;;;;;4.60;1.20;;;9.10;99.90;;;;;;5052322;28;20029;-90
2023/03/25 02:13:05;;;;;;;4.73;1.17;;;9.10;99.90;;;;;;5050715;28;20484;-90
2023/03/25 02:15:59;;;;;;;5.40;1.40;;;9.00;99.90;;;;;;5052172;28;20083;-90
2023/03/25 02:18:40;;;;;;;3.90;1.27;;;9.00;99.90;;;;;;5021564;28;20041;-91
2023/03/25 02:21:08;;;;;;;4.37;1.03;;;9.00;99.90;;;;;;5051756;28;20112;-89
2023/03/25 02:24:12;;;;;;;9.33;1.70;;;8.90;99.90;;;;;;5050417;28;20033;-88
2023/03/25 02:27:04;;;;;;;3.93;1.30;;;8.90;99.90;;;;;;5051539;28;20072;-91
2023/03/25 02:29:42;;;;;;;6.60;1.33;;;8.90;99.90;;;;;;5051544;28;20025;-91
2023/03/25 02:32:28;;;;;;;3.17;1.00;;;8.80;99.90;;;;;;5050713;28;20079;-88
2023/03/25 02:35:09;;;;;;;2.77;1.00;;;8.80;99.90;;;;;;5051189;28;20039;-89
2023/03/25 02:38:05;;;;;;;3.40;1.00;;;8.70;99.90;;;;;;5033324;28;20139;-89
2023/03/25 02:40:37;;;;;;;4.03;1.05;;;8.70;99.90;;;;;;5049018;28;20028;-89
2023/03/25 02:43:11;;;;;;;1.30;1.03;;;8.60;99.90;;;;;;5047072;28;20028;-87
2023/03/25 02:45:43;;;;;;;2.57;1.00;;;8.60;99.90;;;;;;5048786;28;20048;-90
2023/03/25 02:48:17;;;;;;;3.90;1.13;;;8.50;99.90;;;;;;5047709;28;20987;-88
2023/03/25 02:50:51;;;;;;;3.37;1.10;;;8.50;99.90;;;;;;5048873;28;20032;-91
2023/03/25 02:53:32;;;;;;;2.57;0.93;;;8.50;99.90;;;;;;5049402;28;20033;-90
2023/03/25 02:56:07;;;;;;;5.70;1.17;;;8.50;99.90;;;;;;5049405;28;21094;-90
2023/03/25 02:58:34;;;;;;;2.25;1.10;;;8.50;99.90;;;;;;5048884;28;20025;-91
2023/03/25 03:01:00;;;;;;;4.77;1.60;;;8.50;99.90;;;;;;5049218;28;20516;-87
2023/03/25 03:03:26;;;;;;;4.67;1.20;;;8.50;99.90;;;;;;5048779;28;20164;-92
2023/03/25 03:05:58;;;;;;;7.90;1.70;;;8.50;99.90;;;;;;5050267;28;20053;-90
2023/03/25 03:08:47;;;;;;;4.73;1.50;;;8.50;99.90;;;;;;5049230;28;20025;-92
2023/03/25 03:11:27;;;;;;;4.37;1.20;;;8.50;99.90;;;;;;5050776;28;20040;-91
2023/03/25 03:14:53;;;;;;;3.80;1.13;;;8.50;99.90;;;;;;5049980;28;20736;-90
2023/03/25 03:17:37;;;;;;;3.53;1.00;;;8.50;99.90;;;;;;4989879;28;20029;-89
2023/03/25 03:20:24;;;;;;;7.33;1.83;;;8.50;99.90;;;;;;4991750;28;20026;-90
2023/03/25 03:23:12;;;;;;;6.63;1.23;;;8.50;99.90;;;;;;5043370;28;20040;-88
2023/03/25 03:25:47;;;;;;;5.60;1.60;;;8.30;99.90;;;;;;5051776;28;20164;-90
2023/03/25 03:29:12;;;;;;;5.33;1.40;;;8.30;99.90;;;;;;5050852;28;20025;-91
2023/03/25 03:31:43;;;;;;;4.97;1.10;;;8.20;99.90;;;;;;5008585;28;20028;-91
2023/03/25 03:34:17;;;;;;;3.37;1.00;;;8.20;99.90;;;;;;5050122;28;20041;-89
2023/03/25 03:36:48;;;;;;;3.83;1.00;;;8.20;99.90;;;;;;5050450;28;20036;-90
2023/03/25 03:39:27;;;;;;;6.73;1.63;;;8.20;99.90;;;;;;5049756;28;20091;-91
2023/03/25 03:41:58;;;;;;;4.43;1.00;;;8.20;99.90;;;;;;5050560;28;20067;-91
2023/03/25 03:44:30;;;;;;;4.97;1.03;;;8.20;99.90;;;;;;5049416;28;20068;-90
2023/03/25 03:47:04;;;;;;;3.97;1.37;;;8.10;99.90;;;;;;5050303;28;20057;-90
2023/03/25 03:49:37;;;;;;;3.80;1.10;;;8.10;99.90;;;;;;5051090;28;20040;-91
2023/03/25 03:52:17;;;;;;;6.90;1.10;;;8.10;99.90;;;;;;5035343;28;20032;-90
2023/03/25 03:54:58;;;;;;;3.90;0.90;;;8.00;99.90;;;;;;5052261;28;20078;-93
2023/03/25 03:57:29;;;;;;;5.87;1.10;;;8.10;99.90;;;;;;5051836;28;20033;-94
2023/03/25 04:00:24;;;;;;;5.03;1.23;;;8.00;99.90;;;;;;5052021;28;20037;-94
2023/03/25 04:03:00;;;;;;;5.50;1.45;;;8.00;99.90;;;;;;5050161;28;20040;-93
2023/03/25 04:05:29;;;;;;;5.57;1.30;;;7.80;99.90;;;;;;5050709;28;20183;-91
2023/03/25 04:08:11;;;;;;;5.67;1.30;;;7.80;99.90;;;;;;5027103;28;20034;-93
2023/03/25 04:10:45;;;;;;;3.27;1.03;;;7.80;99.90;;;;;;5049910;28;20057;-92
2023/03/25 04:13:14;;;;;;;6.70;1.23;;;7.80;99.90;;;;;;5048519;28;20120;-94
2023/03/25 04:15:41;;;;;;;4.60;1.27;;;7.80;99.90;;;;;;5051238;28;20095;-93
2023/03/25 04:18:07;;;;;;;3.70;1.20;;;7.80;99.90;;;;;;5048139;28;20086;-92
2023/03/25 04:20:35;;;;;;;5.63;1.30;;;7.70;99.90;;;;;;5049339;28;20167;-93
2023/03/25 04:23:03;;;;;;;5.47;1.33;;;7.70;99.90;;;;;;5048489;28;20033;-93
2023/03/25 04:25:31;;;;;;;5.40;1.13;;;7.60;99.90;;;;;;5048479;28;20060;-92
2023/03/25 04:27:57;;;;;;;4.83;1.13;;;7.60;99.90;;;;;;5048266;28;20048;-90
2023/03/25 04:30:24;;;;;;;5.87;1.30;;;7.50;99.90;;;;;;5048607;28;20033;-94
2023/03/25 04:32:51;;;;;;;8.10;1.60;;;7.50;99.90;;;;;;5049117;28;20056;-92
2023/03/25 04:35:18;;;;;;;3.80;1.20;;;7.50;99.90;;;;;;5049244;28;20048;-94
2023/03/25 04:37:44;;;;;;;5.00;1.70;;;7.50;99.90;;;;;;5047025;28;20040;-94
2023/03/25 04:40:12;;;;;;;4.47;1.30;;;7.50;99.90;;;;;;5047236;28;21114;-91
2023/03/25 04:42:41;;;;;;;8.23;1.57;;;7.60;99.90;;;;;;5048340;28;20033;-93
2023/03/25 04:45:12;;;;;;;5.80;1.30;;;7.60;99.90;;;;;;5049660;28;20033;-92
2023/03/25 04:47:43;;;;;;;6.67;2.37;;;7.70;99.90;;;;;;5047397;28;20079;-93
2023/03/25 04:50:19;;;;;;;10.30;1.40;;;7.70;99.90;;;;;;5047327;28;20037;-92
2023/03/25 04:52:45;;;;;;;5.00;1.53;;;7.70;99.90;;;;;;5047368;28;20029;-92
2023/03/25 04:55:16;;;;;;;7.13;1.77;;;7.80;99.90;;;;;;5047840;28;20039;-93
2023/03/25 04:57:49;;;;;;;5.00;1.13;;;7.90;99.90;;;;;;5047605;28;20021;-92
2023/03/25 05:00:18;;;;;;;8.17;1.60;;;7.90;99.90;;;;;;5048252;28;20033;-94
2023/03/25 05:02:45;;;;;;;9.67;1.77;;;7.90;99.90;;;;;;5047660;28;20025;-94
2023/03/25 05:05:19;;;;;;;4.30;1.30;;;7.90;99.90;;;;;;5031137;28;20060;-93
2023/03/25 05:07:49;;;;;;;4.30;1.13;;;7.90;99.90;;;;;;5047896;28;20088;-92
2023/03/25 05:10:21;;;;;;;8.87;1.57;;;7.90;99.90;;;;;;5048364;28;20480;-92
2023/03/25 05:12:46;;;;;;;3.83;1.20;;;8.00;99.90;;;;;;5048450;28;20921;-93
2023/03/25 05:15:13;;;;;;;4.60;1.50;;;8.00;99.90;;;;;;5048742;28;20037;-93
2023/03/25 05:17:39;;;;;;;4.20;1.03;;;8.00;99.90;;;;;;5045953;28;20033;-93
2023/03/25 05:20:07;;;;;;;7.90;1.67;;;8.00;99.90;;;;;;5046709;28;20029;-92
2023/03/25 05:22:33;;;;;;;4.43;0.97;;;8.10;99.90;;;;;;5048004;28;20115;-93
2023/03/25 05:25:01;;;;;;;4.67;1.40;;;8.00;99.90;;;;;;5045859;28;20060;-91
2023/03/25 05:27:29;;;;;;;7.70;1.30;;;8.10;99.90;;;;;;5048519;28;20047;-93
2023/03/25 05:29:57;;;;;;;3.30;1.33;;;8.20;99.90;;;;;;5048506;28;20029;-92
2023/03/25 05:32:34;;;;;;;3.50;1.20;;;8.30;99.90;;;;;;5048388;28;20534;-93
2023/03/25 05:35:00;;;;;;;3.33;1.07;;;8.30;99.90;;;;;;5031161;28;20033;-92
2023/03/25 05:37:26;;;;;;;3.17;0.90;;;8.50;99.90;;;;;;5050114;28;20504;-95
2023/03/25 05:39:52;;;;;;;2.27;0.90;;;8.50;99.90;;;;;;5052050;28;20075;-94
2023/03/25 05:42:21;;;;;;;6.23;1.17;;;8.40;99.90;;;;;;5050619;28;20043;-93
2023/03/25 05:44:50;;;;;;;2.93;0.97;;;8.50;99.90;;;;;;5049837;28;20106;-94
2023/03/25 05:47:22;;;;;;;5.10;1.00;;;8.60;99.90;;;;;;5046454;28;20029;-91
2023/03/25 05:49:48;;;;;;;1.10;0.87;;;8.50;99.90;;;;;;5045956;28;20030;-92
2023/03/25 05:52:15;;;;;;;3.30;1.00;;;8.40;99.90;;;;;;5045901;28;20028;-91
2023/03/25 05:54:42;;;;;;;3.57;0.93;;;8.40;99.90;;;;;;5046873;28;20025;-93
2023/03/25 05:57:08;;;;;;;1.83;0.80;;;8.40;99.90;;;;;;5048406;28;21538;-92
2023/03/25 05:59:37;;;;;;;1.10;0.77;;;8.40;99.90;;;;;;5046433;28;20051;-95
2023/03/25 06:02:06;;;;;;;3.67;0.80;;;8.30;99.90;;;;;;5046820;28;20141;-94
2023/03/25 06:04:32;;;;;;;3.20;0.97;;;8.30;99.90;;;;;;5051406;28;20021;-91
2023/03/25 06:06:58;;;;;;;2.20;0.90;;;8.40;99.90;;;;;;5050950;28;20090;-93
2023/03/25 06:09:24;;;;;;;1.70;0.70;;;8.30;99.90;;;;;;5051489;28;20025;-92
2023/03/25 06:11:52;;;;;;;0.77;0.50;;;8.30;99.90;;;;;;5051519;28;20029;-92
2023/03/25 06:14:19;;;;;;;2.23;0.70;;;8.30;99.90;;;;;;5051757;28;20105;-94
2023/03/25 06:16:45;;;;;;;2.40;0.80;;;8.20;99.90;;;;;;5052531;28;20068;-92
2023/03/25 06:19:11;;;;;;;1.03;0.60;;;8.20;99.90;;;;;;5049498;28;20044;-94
2023/03/25 06:21:39;;;;;;;1.60;0.70;;;8.20;99.90;;;;;;5048228;28;20026;-93
2023/03/25 06:24:05;;;;;;;1.00;0.80;;;8.10;99.90;;;;;;5047351;28;20021;-92
2023/03/25 06:26:31;;;;;;;3.53;0.90;;;8.10;99.90;;;;;;5045768;28;20029;-90
2023/03/25 06:28:57;;;;;;;1.57;0.73;;;8.10;99.90;;;;;;5045922;28;20040;-89
2023/03/25 06:31:32;;;;;;;1.67;0.70;;;8.10;99.90;;;;;;5053290;28;20032;-94
2023/03/25 06:33:57;;;;;;;0.82;0.60;;;8.00;99.90;;;;;;5060721;28;20069;-95
2023/03/25 06:36:24;;;;;;;2.50;0.90;;;8.00;99.90;;;;;;5063726;22;20057;-94
2023/03/25 06:38:52;;;;;;;2.00;0.80;;;8.00;99.90;;;;;;5042656;28;20025;-87
2023/03/25 06:41:19;;;;;;;1.80;0.50;;;8.00;99.90;;;;;;5028697;28;20061;-86
2023/03/25 06:43:45;;;;;;;2.20;0.80;;;8.00;99.90;;;;;;5027753;28;20029;-88
2023/03/25 06:46:11;;;;;;;1.50;0.60;;;7.90;99.90;;;;;;5026586;28;20041;-87
2023/03/25 06:48:37;;;;;;;0.80;0.60;;;7.90;99.90;;;;;;5031925;28;20021;-88
2023/03/25 06:51:03;;;;;;;1.07;0.70;;;7.90;99.90;;;;;;5029788;28;20849;-88
2023/03/25 06:53:28;;;;;;;1.37;0.70;;;7.80;99.90;;;;;;5026136;28;20545;-89
2023/03/25 06:55:56;;;;;;;0.93;0.70;;;7.70;99.90;;;;;;5013800;28;20668;-88
2023/03/25 06:58:22;;;;;;;1.90;1.17;;;7.70;99.90;;;;;;5027377;28;20048;-88
2023/03/25 07:00:56;;;;;;;1.93;0.90;;;7.60;99.90;;;;;;5011436;28;20483;-83
2023/03/25 07:03:22;;;;;;;1.23;0.90;;;7.70;99.90;;;;;;5029919;28;20025;-91
2023/03/25 07:05:48;;;;;;;1.23;0.70;;;7.60;99.90;;;;;;5027673;28;20456;-77
2023/03/25 07:08:14;;;;;;;2.27;0.83;;;7.60;99.90;;;;;;5026691;28;20110;-85
2023/03/25 07:10:39;;;;;;;0.97;0.73;;;7.50;99.90;;;;;;5026639;28;20120;-87
2023/03/25 07:13:05;;;;;;;1.83;0.90;;;7.50;99.90;;;;;;5024758;28;20037;-87
2023/03/25 07:15:31;;;;;;;2.87;0.80;;;7.50;99.90;;;;;;5026504;28;20111;-87
2023/03/25 07:17:56;;;;;;;2.80;1.10;;;7.40;99.90;;;;;;4997913;28;20028;-88
2023/03/25 07:20:22;;;;;;;2.90;0.90;;;7.40;99.90;;;;;;4998558;28;20044;-86
2023/03/25 07:22:48;;;;;;;2.63;1.10;;;7.40;99.90;;;;;;5019913;28;20032;-85
2023/03/25 07:25:13;;;;;;;1.23;1.03;;;7.60;99.90;;;;;;5016839;28;20042;-86
2023/03/25 07:27:39;;;;;;;2.07;1.00;;;7.70;99.90;;;;;;5023007;28;20101;-86
2023/03/25 07:30:06;;;;;;;1.47;0.80;;;7.60;99.90;;;;;;5026601;28;20036;-78
2023/03/25 07:32:31;;;;;;;2.30;1.10;;;7.60;99.90;;;;;;5031233;28;20029;-92
2023/03/25 07:34:57;;;;;;;3.40;0.83;;;7.60;99.90;;;;;;5032984;28;20045;-93
2023/03/25 07:37:22;;;;;;;1.23;0.90;;;7.50;99.90;;;;;;5038175;28;20057;-94
2023/03/25 07:39:48;;;;;;;1.40;0.80;;;7.50;99.90;;;;;;5037763;28;20827;-92
2023/03/25 07:42:13;;;;;;;3.20;1.00;;;7.50;99.90;;;;;;5036165;28;20480;-91
2023/03/25 07:44:39;;;;;;;2.30;0.87;;;7.50;99.90;;;;;;5034691;28;20037;-92
2023/03/25 07:47:05;;;;;;;1.97;0.80;;;7.60;99.90;;;;;;5036030;28;20231;-93
2023/03/25 07:49:30;;;;;;;1.70;0.70;;;7.80;99.90;;;;;;5035592;28;20025;-91
2023/03/25 07:51:56;;;;;;;1.37;1.00;;;7.90;99.90;;;;;;5036183;28;20080;-91
2023/03/25 07:54:23;;;;;;;1.20;0.83;;;7.80;99.90;;;;;;5037087;28;20435;-93
2023/03/25 07:56:49;;;;;;;2.90;1.00;;;7.80;99.90;;;;;;5017185;28;20128;-94
2023/03/25 07:59:15;;;;;;;3.90;0.83;;;7.80;99.90;;;;;;5034300;28;20092;-90
2023/03/25 08:01:41;;;;;;;1.23;0.80;;;7.90;99.90;;;;;;5038458;28;20168;-94
2023/03/25 08:04:06;;;;;;;1.00;0.87;;;7.80;99.90;;;;;;5019656;28;20053;-95
2023/03/25 08:06:32;;;;;;;2.17;0.93;;;8.00;99.90;;;;;;5038379;28;20021;-92
2023/03/25 08:08:57;;;;;;;2.10;0.80;;;8.00;99.90;;;;;;5040798;28;20037;-95
2023/03/25 08:11:23;;;;;;;1.87;0.70;;;8.20;99.90;;;;;;5039322;28;20025;-94
2023/03/25 08:13:48;;;;;;;2.13;0.70;;;8.20;99.90;;;;;;5038321;28;20040;-95
2023/03/25 08:16:14;;;;;;;2.43;1.00;;;8.40;99.90;;;;;;5037972;28;20022;-95
2023/03/25 08:18:43;;;;;;;5.83;0.93;;;8.50;99.90;;;;;;5038753;28;20048;-93
2023/03/25 08:21:10;;;;;;;2.87;1.10;;;8.60;99.90;;;;;;5042370;28;20040;-96
2023/03/25 08:23:36;;;;;;;3.47;0.90;;;8.80;99.90;;;;;;5040999;28;20025;-95
2023/03/25 08:26:04;;;;;;;1.40;0.60;;;9.00;99.90;;;;;;5039103;28;20052;-94
2023/03/25 08:28:30;;;;;;;4.67;0.90;;;9.10;99.90;;;;;;5039163;28;20069;-94
2023/03/25 08:30:57;;;;;;;2.17;0.70;;;9.20;99.90;;;;;;5039832;28;20108;-93
2023/03/25 08:33:32;;;;;;;1.90;0.60;;;9.40;99.90;;;;;;5042167;28;20092;-95
2023/03/25 08:35:59;;;;;;;5.03;0.70;;;9.40;99.90;;;;;;5041503;28;20038;-94
2023/03/25 08:38:30;;;;;;;1.23;0.60;;;9.40;99.90;;;;;;5036489;23;20025;-94
2023/03/25 08:40:57;;;;;;;1.40;0.60;;;9.60;99.90;;;;;;5047619;28;20041;-96
2023/03/25 08:43:24;;;;;;;1.77;0.60;;;9.60;99.90;;;;;;5052728;28;20071;-94
2023/03/25 08:45:49;;;;;;;1.40;0.60;;;9.80;99.90;;;;;;5051448;28;20112;-95
2023/03/25 08:48:15;;;;;;;0.60;0.60;;;10.00;99.90;;;;;;5051780;28;20100;-95
2023/03/25 08:50:40;;;;;;;5.77;0.93;;;9.80;99.90;;;;;;5050446;28;20059;-96
2023/03/25 08:53:06;;;;;;;1.10;0.63;;;9.80;99.90;;;;;;5051342;28;20546;-95
2023/03/25 08:55:31;;;;;;;1.53;0.60;;;9.70;99.90;;;;;;5052837;28;20031;-94
2023/03/25 08:58:01;;;;;;;3.00;0.70;;;9.60;99.90;;;;;;5053141;28;20120;-95
2023/03/25 09:00:27;;;;;;;2.00;0.70;;;9.40;99.90;;;;;;5049234;28;20029;-96
2023/03/25 09:02:52;;;;;;;1.23;0.60;;;9.30;99.90;;;;;;5046175;28;20096;-93
2023/03/25 09:05:18;;;;;;;0.40;0.40;;;9.20;99.90;;;;;;5048747;28;20062;-94
2023/03/25 09:07:44;;;;;;;5.03;0.90;;;9.20;99.90;;;;;;5046034;28;20033;-94
2023/03/25 09:10:13;;;;;;;0.83;0.63;;;9.10;99.90;;;;;;5051331;28;20045;-95
2023/03/25 09:12:38;;;;;;;2.73;0.70;;;9.20;99.90;;;;;;5053991;28;20025;-87
2023/03/25 09:15:05;;;;;;;1.83;0.70;;;9.20;99.90;;;;;;5045351;28;21412;-95
2023/03/25 09:17:30;;;;;;;2.33;1.10;;;9.20;99.90;;;;;;5043529;28;20051;-79
2023/03/25 09:19:56;;;;;;;0.70;0.70;;;9.40;99.90;;;;;;5039286;28;20025;-84
2023/03/25 09:22:21;;;;;;;2.20;0.80;;;9.50;99.90;;;;;;5038362;28;20021;-84
2023/03/25 09:24:47;;;;;;;2.20;1.00;;;9.60;99.90;;;;;;5038361;28;20898;-84
2023/03/25 09:27:12;;;;;;;1.27;0.70;;;9.80;99.90;;;;;;5037277;28;20025;-84
2023/03/25 09:29:38;;;;;;;1.40;0.80;;;10.00;99.90;;;;;;5039010;28;20056;-84
2023/03/25 09:32:04;;;;;;;4.23;0.77;;;10.10;99.90;;;;;;5032364;28;20026;-84
2023/03/25 09:34:33;;;;;;;0.97;0.70;;;10.10;99.90;;;;;;5031307;28;20535;-87
2023/03/25 09:37:02;;;;;;;3.33;0.90;;;10.20;99.90;;;;;;5037153;28;20133;-86
2023/03/25 09:39:30;;;;;;;1.77;0.63;;;10.30;99.90;;;;;;5053540;28;20055;-86
2023/03/25 09:42:27;;;;;;;2.13;0.73;;;10.40;99.90;;;;;;5057174;28;20163;-85
2023/03/25 09:44:59;;;;;;;3.50;0.90;;;10.40;99.90;;;;;;5056809;28;20052;-85
2023/03/25 09:47:28;;;;;;;2.73;1.10;;;10.60;99.90;;;;;;5056375;28;20390;-85
2023/03/25 09:49:57;;;;;;;2.73;0.80;;;10.70;99.90;;;;;;5057062;28;20029;-85
2023/03/25 09:52:27;;;;;;;2.77;1.10;;;10.70;99.90;;;;;;5055649;28;20135;-85
2023/03/25 09:54:57;;;;;;;4.53;0.90;;;10.90;99.90;;;;;;5056776;28;20557;-85
2023/03/25 09:57:30;;;;;;;2.27;0.70;;;11.00;99.90;;;;;;5056025;28;20020;-85
2023/03/25 10:00:00;;;;;;;2.90;0.97;;;10.90;99.90;;;;;;5056773;28;20418;-84
2023/03/25 10:02:56;;;;;;;7.20;2.07;;;10.90;99.90;;;;;;5055006;28;20029;-84
2023/03/25 10:05:48;;;;;;;2.67;0.80;;;11.10;99.90;;;;;;5056298;28;20025;-86
2023/03/25 10:08:45;;;;;;;4.30;0.83;;;11.20;99.90;;;;;;5055892;28;20378;-85
2023/03/25 10:11:38;;;;;;;3.70;1.10;;;11.30;99.90;;;;;;5054984;28;20618;-85
2023/03/25 10:14:15;;;;;;;5.22;1.52;;;11.50;99.90;;;;;;5055949;28;20044;-85
2023/03/25 10:16:53;;;;;;;5.40;0.88;;;11.70;99.90;;;;;;5056541;28;20017;-85
2023/03/25 10:19:33;;;;;;;4.03;1.58;;;11.90;99.90;;;;;;5038947;28;20483;-85
2023/03/25 10:22:16;;;;;;;2.90;0.98;;;12.00;99.90;;;;;;5058831;28;20020;-86
2023/03/25 10:24:49;;;;;;;1.77;0.80;;;11.90;99.90;;;;;;5041762;28;20056;-85
2023/03/25 10:27:37;;;;;;;6.97;1.98;;;11.90;99.90;;;;;;5062095;28;20032;-86
2023/03/25 10:30:11;;;;;;;3.28;0.90;;;11.60;99.90;;;;;;5062413;28;20047;-84
2023/03/25 10:32:45;;;;;;;3.20;0.90;;;11.50;99.90;;;;;;5060643;28;20123;-85
2023/03/25 10:35:22;;;;;;;3.30;1.08;;;11.50;99.90;;;;;;5053120;28;20047;-85
2023/03/25 10:37:51;;;;;;;1.77;0.70;;;11.50;99.90;;;;;;5053950;28;20035;-83
2023/03/25 10:40:18;;;;;;;3.07;0.90;;;11.30;99.90;;;;;;5056492;28;20167;-84
2023/03/25 10:43:22;;;;;;;2.83;0.80;;;11.20;99.90;;;;;;5054943;28;20572;-83
2023/03/25 10:45:50;;;;;;;1.53;0.80;;;11.20;99.90;;;;;;5052385;28;20028;-84
2023/03/25 10:48:24;;;;;;;2.27;0.80;;;11.10;99.90;;;;;;5054089;28;20047;-85
2023/03/25 10:50:52;;;;;;;1.57;0.80;;;11.00;99.90;;;;;;5056858;28;20036;-85
2023/03/25 10:53:26;;;;;;;0.77;0.60;;;11.00;99.90;;;;;;5054720;28;20044;-84
2023/03/25 10:56:14;;;;;;;2.67;0.95;;;11.00;99.90;;;;;;5052082;28;20059;-83
2023/03/25 10:58:42;;;;;;;1.57;0.80;;;11.10;99.90;;;;;;5053659;28;20197;-82
2023/03/25 11:01:17;;;;;;;1.87;0.70;;;11.30;99.90;;;;;;5055702;28;20043;-84
2023/03/25 11:03:45;;;;;;;1.10;0.70;;;11.30;99.90;;;;;;5037621;28;20760;-82
2023/03/25 11:06:28;;;;;;;1.30;0.60;;;11.30;99.90;;;;;;5053943;28;20060;-83
2023/03/25 11:08:57;;;;;;;2.73;0.87;;;11.40;99.90;;;;;;5056468;28;20032;-84
2023/03/25 11:11:31;;;;;;;0.63;0.50;;;11.40;99.90;;;;;;5062963;28;20194;-85
2023/03/25 11:13:56;;;;;;;1.93;0.57;;;11.50;99.90;;;;;;5062214;28;20070;-86
2023/03/25 11:16:22;;;;;;;1.90;0.70;;;11.40;99.90;;;;;;5062943;28;20025;-85
2023/03/25 11:18:51;;;;;;;2.13;0.60;;;11.30;99.90;;;;;;5061538;28;20021;-85
2023/03/25 11:21:17;;;;;;;1.13;0.63;;;11.30;99.90;;;;;;5060963;28;20024;-85
2023/03/25 11:23:49;;;;;;;1.30;0.60;;;11.40;99.90;;;;;;5060132;28;20111;-85
2023/03/25 11:26:26;;;;;;;0.55;0.52;;;11.40;99.90;;;;;;5060644;28;20031;-85
2023/03/25 11:29:00;;;;;;;1.50;0.70;;;11.40;99.90;;;;;;5059867;28;20050;-86
2023/03/25 11:31:29;;;;;;;0.75;0.50;;;11.60;99.90;;;;;;5060971;28;21432;-84
2023/03/25 11:34:18;;;;;;;1.95;0.60;;;11.90;99.90;;;;;;5058366;28;20051;-85
2023/03/25 11:36:54;;;;;;;1.13;0.50;;;12.20;99.90;;;;;;5060487;28;20040;-84
2023/03/25 11:39:22;;;;;;;4.18;0.40;;;12.50;99.90;;;;;;5053348;28;20048;-85
2023/03/25 11:41:48;;;;;;;0.32;0.32;;;12.40;99.90;;;;;;5040249;28;20028;-87
2023/03/25 11:44:20;;;;;;;0.73;0.50;;;12.40;99.90;;;;;;5056293;28;20039;-82
2023/03/25 11:46:49;;;;;;;0.67;0.50;;;12.20;99.90;;;;;;5041108;28;20059;-81
2023/03/25 11:49:20;;;;;;;1.10;0.50;;;12.00;99.90;;;;;;5059329;28;20064;-81
2023/03/25 11:51:46;;;;;;;0.75;0.60;;;11.70;99.90;;;;;;5057431;28;20040;-81
2023/03/25 11:54:15;;;;;;;1.80;0.50;;;11.40;99.90;;;;;;5059458;28;20332;-82
2023/03/25 11:56:46;;;;;;;1.43;0.60;;;11.20;99.90;;;;;;5058395;28;20187;-82
2023/03/25 11:59:22;;;;;;;0.80;0.50;;;11.00;99.90;;;;;;5059072;28;20036;-82
2023/03/25 12:01:51;;;;;;;0.63;0.60;;;11.00;99.90;;;;;;5059046;28;20795;-83
2023/03/25 12:04:21;;;;;;;1.10;0.60;;;11.00;99.90;;;;;;5057655;28;20075;-81
2023/03/25 12:06:56;;;;;;;0.73;0.60;;;11.20;99.90;;;;;;5060335;28;20039;-83
2023/03/25 12:09:24;;;;;;;0.90;0.60;;;11.70;99.90;;;;;;5059133;28;20056;-82
2023/03/25 12:12:13;;;;;;;1.20;0.80;;;12.10;99.90;;;;;;5060414;28;20031;-82
2023/03/25 12:14:45;;;;;;;0.73;0.68;;;12.00;99.90;;;;;;5060070;28;20079;-83
2023/03/25 12:17:45;;;;;;;0.82;0.50;;;11.80;99.90;;;;;;5058406;28;20505;-82
2023/03/25 12:20:20;;;;;;;1.70;0.90;;;11.80;99.90;;;;;;5058654;28;20041;-81
2023/03/25 12:23:09;;;;;;;0.70;0.50;;;11.70;99.90;;;;;;5058648;28;20031;-81
2023/03/25 12:25:46;;;;;;;1.15;0.55;;;11.70;99.90;;;;;;5058586;28;20480;-82
2023/03/25 12:28:39;;;;;;;1.48;0.60;;;11.50;99.90;;;;;;5057677;28;20708;-81
2023/03/25 12:31:34;;;;;;;0.97;0.57;;;11.30;99.90;;;;;;5058478;28;20033;-81
2023/03/25 12:34:24;;;;;;;0.43;0.40;;;11.20;99.90;;;;;;5059094;28;20036;-80
2023/03/25 12:37:13;;;;;;;0.67;0.40;;;11.10;99.90;;;;;;5059682;28;20479;-81
2023/03/25 12:40:26;;;;;;;0.80;0.60;;;11.00;99.90;;;;;;5057773;28;20053;-81
2023/03/25 12:43:06;;;;;;;0.40;0.40;;;11.20;99.90;;;;;;5058068;28;20028;-81
2023/03/25 12:46:04;;;;;;;0.43;0.43;;;11.30;99.90;;;;;;5057334;28;20032;-84
2023/03/25 12:48:47;;;;;;;0.70;0.40;;;11.60;99.90;;;;;;5063256;28;20028;-91
2023/03/25 12:51:28;;;;;;;1.05;0.45;;;12.10;99.90;;;;;;5064341;28;20025;-95
2023/03/25 12:54:25;;;;;;;1.10;0.50;;;12.20;99.90;;;;;;5065798;28;20044;-94
2023/03/25 12:57:24;;;;;;;0.73;0.70;;;12.20;99.90;;;;;;5065581;28;20030;-93
2023/03/25 13:00:09;;;;;;;1.27;0.50;;;12.40;99.90;;;;;;5056159;28;20510;-93
2023/03/25 13:03:28;;;;;;;1.42;0.60;;;12.40;99.90;;;;;;5069078;28;20062;-95
2023/03/25 13:06:02;;;;;;;1.83;0.98;;;12.50;99.90;;;;;;4992387;28;20453;-95
2023/03/25 13:08:35;;;;;;;1.13;0.90;;;12.70;99.90;;;;;;5059914;28;20032;-92
2023/03/25 13:11:13;;;;;;;2.17;0.60;;;12.70;99.90;;;;;;5064215;28;20028;-93
2023/03/25 13:13:42;;;;;;;1.15;0.57;;;12.90;99.90;;;;;;5069288;28;20041;-94
2023/03/25 13:16:13;;;;;;;2.58;0.57;;;12.70;99.90;;;;;;5063080;28;20028;-92
2023/03/25 13:18:47;;;;;;;0.60;0.45;;;12.80;99.90;;;;;;5064247;28;20085;-93